RJEO(METAR)
08/14 14:00
RJEO 140500Z 11015KT 9999 RA FEW020 BKNXXX 22/20 Q1005 RMK A2969=
戻る
トップページへ戻る
IMOC Co,.Ltd.